Time;durP1;ratioP1;P1;durP2;ratioP2;P2;SDS_P1;SDS_P2;PMS_P1;PMS_P2;Temp;Humidity;BMP_temperature;BMP_pressure;BME280_temperature;BME280_humidity;BME280_pressure;Samples;Min_cycle;Max_cycle;Signal;HPM_P1;HPM_P2
2022/01/23 00:02:27;;;;;;;1.00;1.00;;;;;;;-5.34;85.36;99261.88;5041108;28;20049;-81
2022/01/23 00:04:54;;;;;;;0.80;0.80;;;;;;;-5.31;85.50;99264.25;5041403;28;20466;-80
2022/01/23 00:07:22;;;;;;;0.65;0.65;;;;;;;-5.35;85.39;99258.44;5041681;28;20049;-81
2022/01/23 00:09:49;;;;;;;0.70;0.70;;;;;;;-5.32;85.58;99267.84;5042849;28;20426;-80
2022/01/23 00:12:19;;;;;;;0.60;0.60;;;;;;;-5.32;85.96;99260.78;5041890;28;20048;-80
2022/01/23 00:17:35;;;;;;;0.40;0.40;;;;;;;-5.35;85.54;99266.31;5043825;28;20110;-81
2022/01/23 00:20:14;;;;;;;;;;;;;;;-5.41;85.42;99274.78;5043902;28;20087;-80
2022/01/23 00:22:48;;;;;;;0.70;0.70;;;;;;;-5.41;85.67;99277.41;5044553;28;19928;-79
2022/01/23 00:30:53;;;;;;;0.73;0.73;;;;;;;-5.47;85.61;99294.56;5045291;28;20045;-80
2022/01/23 00:33:24;;;;;;;0.70;0.70;;;;;;;-5.46;85.72;99287.50;5044899;28;20488;-81
2022/01/23 00:35:53;;;;;;;0.73;0.73;;;;;;;-5.47;85.85;99297.19;5039743;28;20049;-82
2022/01/23 00:38:22;;;;;;;0.65;0.65;;;;;;;-5.48;85.91;99307.84;5040532;28;20052;-80
2022/01/23 00:40:50;;;;;;;0.75;0.75;;;;;;;-5.43;86.02;99316.16;5053465;28;20044;-78
2022/01/23 00:43:28;;;;;;;0.60;0.60;;;;;;;-5.47;86.08;99305.09;5047390;28;20475;-79
2022/01/23 00:46:09;;;;;;;0.75;0.75;;;;;;;-5.43;86.11;99312.69;5051367;28;20064;-79
2022/01/23 00:48:41;;;;;;;0.73;0.73;;;;;;;-5.42;86.16;99316.97;5051591;28;20045;-79
2022/01/23 00:51:08;;;;;;;0.70;0.70;;;;;;;-5.39;86.40;99314.94;5046528;28;20049;-79
2022/01/23 00:53:36;;;;;;;0.60;0.60;;;;;;;-5.35;86.45;99324.19;5049039;28;20083;-81
2022/01/23 00:56:03;;;;;;;0.60;0.60;;;;;;;-5.33;86.38;99321.44;5045459;28;20064;-80
2022/01/23 00:58:30;;;;;;;0.73;0.73;;;;;;;-5.30;86.33;99316.72;5044149;28;20077;-80
2022/01/23 01:00:57;;;;;;;0.60;0.60;;;;;;;-5.28;86.41;99320.06;5042820;28;20408;-81
2022/01/23 01:03:24;;;;;;;0.70;0.70;;;;;;;-5.27;86.50;99320.88;5038182;28;20784;-81
2022/01/23 01:05:52;;;;;;;0.52;0.52;;;;;;;-5.27;86.25;99323.53;5032775;28;20439;-81
2022/01/23 01:08:19;;;;;;;0.60;0.60;;;;;;;-5.28;86.36;99329.75;5034148;28;20052;-81
2022/01/23 01:16:42;;;;;;;0.60;0.60;;;;;;;-5.34;86.32;99343.44;5031618;28;20053;-82
2022/01/23 01:33:50;;;;;;;0.70;0.70;;;;;;;-5.43;86.80;99352.97;5008303;28;20579;-81
2022/01/23 01:36:23;;;;;;;0.60;0.60;;;;;;;-5.43;86.79;99358.25;4992206;28;20064;-81
2022/01/23 01:38:53;;;;;;;0.60;0.60;;;;;;;-5.43;86.80;99358.25;4975681;28;20146;-81
2022/01/23 01:41:24;;;;;;;0.63;0.63;;;;;;;-5.39;86.56;99361.44;4973891;28;20047;-82
2022/01/23 01:43:53;;;;;;;0.60;0.60;;;;;;;-5.40;86.69;99359.78;4975321;28;20524;-81
2022/01/23 01:46:44;;;;;;;0.60;0.60;;;;;;;-5.45;86.75;99360.16;4971114;28;20596;-81
2022/01/23 01:49:12;;;;;;;0.70;0.70;;;;;;;-5.43;86.79;99373.19;4975515;28;20092;-82
2022/01/23 01:51:39;;;;;;;0.70;0.70;;;;;;;-5.44;86.92;99372.38;4975656;28;20529;-81
2022/01/23 01:54:15;;;;;;;0.60;0.60;;;;;;;-5.45;86.84;99370.69;4975470;28;20166;-81
2022/01/23 01:57:03;;;;;;;0.60;0.60;;;;;;;-5.42;86.91;99380.94;4975740;28;20059;-82
2022/01/23 02:10:50;;;;;;;0.70;0.70;;;;;;;-5.35;86.59;99418.91;5022750;28;20061;-82
2022/01/23 02:13:25;;;;;;;0.60;0.60;;;;;;;-5.31;86.58;99425.59;5031881;28;20064;-81
2022/01/23 02:54:58;;;;;;;0.80;0.80;;;;;;;-5.42;86.45;99491.44;5031738;28;20050;-82
2022/01/23 02:58:13;;;;;;;0.70;0.70;;;;;;;-5.43;86.18;99494.22;5031501;28;20056;-82
2022/01/23 03:00:25;;;;;;;0.90;0.90;;;;;;;-5.45;86.24;99499.59;5030768;28;20060;-81
2022/01/23 03:03:10;;;;;;;0.77;0.77;;;;;;;-5.48;86.20;99503.31;5032647;28;20049;-80
2022/01/23 03:25:44;;;;;;;0.75;0.75;;;;;;;-5.62;86.07;99532.59;5000543;28;20045;-80
2022/01/23 03:33:39;;;;;;;0.98;0.98;;;;;;;-5.58;85.85;99546.31;5029217;28;19925;-81
2022/01/23 03:36:07;;;;;;;0.60;0.60;;;;;;;-5.56;85.94;99562.78;5029197;28;20540;-82
2022/01/23 03:38:34;;;;;;;0.73;0.73;;;;;;;-5.56;86.02;99562.78;5029090;28;20526;-82
2022/01/23 03:41:01;;;;;;;0.60;0.60;;;;;;;-5.55;85.96;99577.59;5029272;28;20140;-81
2022/01/23 03:43:32;;;;;;;0.80;0.80;;;;;;;-5.54;86.07;99577.50;5012871;28;20048;-82
2022/01/23 03:46:22;;;;;;;0.90;0.90;;;;;;;-5.54;86.03;99582.75;5012595;28;20516;-82
2022/01/23 03:51:23;;;;;;;0.63;0.63;;;;;;;-5.48;86.00;99591.91;5012392;28;20063;-80
2022/01/23 03:53:50;;;;;;;0.80;0.80;;;;;;;-5.47;86.02;99593.56;5012600;28;20052;-81
2022/01/23 03:56:22;;;;;;;0.52;0.52;;;;;;;-5.47;85.95;99593.56;5012523;28;20084;-81
2022/01/23 03:58:52;;;;;;;0.68;0.68;;;;;;;-5.46;85.68;99600.53;5029242;28;20049;-82
2022/01/23 04:01:20;;;;;;;0.90;0.90;;;;;;;-5.50;85.85;99599.91;5029735;28;20139;-82
2022/01/23 04:03:53;;;;;;;0.60;0.60;;;;;;;-5.51;85.86;99608.78;5012755;28;20057;-83
2022/01/23 04:06:20;;;;;;;0.60;0.60;;;;;;;-5.54;85.73;99608.22;5012064;28;20593;-82
2022/01/23 04:08:49;;;;;;;0.65;0.65;;;;;;;-5.52;85.85;99614.16;5012386;28;20045;-82
2022/01/23 04:11:17;;;;;;;0.80;0.80;;;;;;;-5.54;85.89;99616.13;5030560;28;20099;-83
2022/01/23 04:13:58;;;;;;;0.60;0.60;;;;;;;-5.51;86.10;99621.13;5030123;28;20079;-82
2022/01/23 04:46:03;;;;;;;0.70;0.70;;;;;;;-5.54;85.60;99666.09;5030917;28;20058;-82
2022/01/23 04:59:32;;;;;;;0.60;0.60;;;;;;;-5.53;85.67;99678.25;5029341;28;20194;-82
2022/01/23 05:00:09;;;;;;;0.70;0.70;;;;;;;-5.58;85.30;99696.22;5028652;28;20046;-82
2022/01/23 05:05:58;;;;;;;0.73;0.73;;;;;;;-5.50;85.28;99718.28;5028233;28;20054;-82
2022/01/23 05:08:44;;;;;;;0.55;0.55;;;;;;;-5.51;85.39;99727.16;5027700;28;20045;-82
2022/01/23 05:11:31;;;;;;;0.70;0.70;;;;;;;-5.52;85.33;99725.50;5011547;28;20508;-80
2022/01/23 05:14:02;;;;;;;0.50;0.50;;;;;;;-5.47;85.16;99714.59;5028423;28;20140;-82
2022/01/23 05:16:32;;;;;;;0.57;0.57;;;;;;;-5.43;85.16;99731.78;5030396;28;20148;-82
2022/01/23 05:19:01;;;;;;;0.70;0.70;;;;;;;-5.45;84.94;99739.81;5032241;28;20053;-81
2022/01/23 05:24:25;;;;;;;0.57;0.57;;;;;;;-5.47;85.04;99752.28;5031544;28;20061;-81
2022/01/23 05:27:02;;;;;;;0.70;0.70;;;;;;;-5.46;84.83;99751.28;5032292;28;20061;-82
2022/01/23 05:29:29;;;;;;;0.90;0.90;;;;;;;-5.44;85.17;99759.06;5033896;28;20049;-83
2022/01/23 05:31:56;;;;;;;0.70;0.70;;;;;;;-5.38;85.10;99766.47;5034466;28;20489;-81
2022/01/23 05:34:24;;;;;;;0.70;0.70;;;;;;;-5.36;85.06;99768.97;5034207;28;20049;-81
2022/01/23 05:36:56;;;;;;;0.60;0.60;;;;;;;-5.35;84.94;99773.28;5033346;28;20049;-82
2022/01/23 05:39:26;;;;;;;0.60;0.60;;;;;;;-5.35;85.04;99776.72;5032809;28;20069;-83
2022/01/23 05:41:59;;;;;;;0.65;0.65;;;;;;;-5.32;85.02;99778.28;5032977;28;20146;-82
2022/01/23 05:44:29;;;;;;;0.68;0.68;;;;;;;-5.31;85.16;99782.59;5033340;28;20051;-80
2022/01/23 05:46:59;;;;;;;0.70;0.70;;;;;;;-5.27;84.76;99789.28;5048869;28;20064;-81
2022/01/23 05:49:39;;;;;;;0.65;0.65;;;;;;;-5.24;84.85;99794.31;5032193;28;20095;-80
2022/01/23 05:52:23;;;;;;;0.68;0.68;;;;;;;-5.31;84.83;99791.31;5029612;28;20078;-80
2022/01/23 05:55:04;;;;;;;0.80;0.80;;;;;;;-5.28;84.60;99798.97;5040790;28;20487;-79
2022/01/23 05:57:40;;;;;;;0.82;0.82;;;;;;;-5.32;84.72;99810.69;5068213;28;20140;-79
2022/01/23 06:00:13;;;;;;;0.80;0.80;;;;;;;-5.37;84.36;99801.50;5061514;28;20044;-81
2022/01/23 06:02:53;;;;;;;0.70;0.70;;;;;;;-5.37;84.63;99817.28;5045699;28;20462;-79
2022/01/23 06:05:31;;;;;;;0.80;0.80;;;;;;;-5.36;84.38;99819.81;5050938;28;20565;-80
2022/01/23 06:08:02;;;;;;;0.85;0.85;;;;;;;-5.37;84.04;99828.63;5051870;28;20098;-81
2022/01/23 06:10:36;;;;;;;0.70;0.70;;;;;;;-5.35;84.39;99839.06;5050683;28;20048;-82
2022/01/23 06:13:03;;;;;;;0.65;0.65;;;;;;;-5.33;84.18;99847.66;5052618;28;20056;-82
2022/01/23 06:15:31;;;;;;;0.70;0.70;;;;;;;-5.34;83.78;99846.84;5052211;28;20049;-85
2022/01/23 06:17:58;;;;;;;0.60;0.60;;;;;;;-5.35;83.91;99860.94;5045109;28;20128;-85
2022/01/23 06:20:44;;;;;;;0.63;0.63;;;;;;;-5.35;84.00;99860.09;5048682;28;20102;-82
2022/01/23 06:23:32;;;;;;;0.73;0.73;;;;;;;-5.34;84.01;99859.13;5047701;28;20099;-83
2022/01/23 06:26:13;;;;;;;0.70;0.70;;;;;;;-5.32;84.17;99862.47;5050860;28;20043;-83
2022/01/23 06:28:56;;;;;;;0.65;0.65;;;;;;;-5.27;83.90;99873.47;5051113;28;20136;-83
2022/01/23 06:31:23;;;;;;;0.70;0.70;;;;;;;-5.25;83.92;99867.13;5035586;28;20049;-83
2022/01/23 06:33:51;;;;;;;0.77;0.77;;;;;;;-5.20;84.01;99879.94;5052584;28;20450;-85
2022/01/23 06:36:18;;;;;;;0.80;0.80;;;;;;;-5.15;84.03;99879.56;5039925;28;20057;-85
2022/01/23 06:38:45;;;;;;;0.80;0.80;;;;;;;-5.13;84.07;99883.75;5045403;28;20098;-84
2022/01/23 06:41:14;;;;;;;0.60;0.60;;;;;;;-5.09;83.79;99892.22;5033979;28;20052;-85
2022/01/23 06:44:02;;;;;;;0.68;0.68;;;;;;;-5.09;83.83;99892.22;5027649;28;20537;-82
2022/01/23 06:46:39;;;;;;;0.68;0.68;;;;;;;-5.08;83.92;99896.56;5051594;28;20132;-87
2022/01/23 06:49:10;;;;;;;0.80;0.80;;;;;;;-5.08;83.71;99904.44;5041691;28;20135;-86
2022/01/23 06:51:39;;;;;;;0.60;0.60;;;;;;;-5.13;83.75;99902.19;5061996;28;20080;-83
2022/01/23 06:54:08;;;;;;;0.70;0.70;;;;;;;-5.07;83.85;99909.56;5049233;28;20053;-79
2022/01/23 06:56:37;;;;;;;0.80;0.80;;;;;;;-4.98;83.77;99910.66;5050760;28;20124;-83
2022/01/23 06:59:04;;;;;;;0.63;0.63;;;;;;;-4.99;83.59;99914.22;5034955;28;20583;-83
2022/01/23 07:01:42;;;;;;;0.63;0.63;;;;;;;-4.99;83.81;99914.22;5050743;28;20045;-82
2022/01/23 07:04:23;;;;;;;0.77;0.77;;;;;;;-4.94;83.54;99929.66;5043136;28;20050;-82
2022/01/23 07:07:11;;;;;;;0.90;0.90;;;;;;;-4.97;83.55;99938.63;5045976;28;20063;-83
2022/01/23 07:09:47;;;;;;;0.73;0.73;;;;;;;-4.95;83.61;99939.34;5047154;28;20048;-81
2022/01/23 07:12:33;;;;;;;0.75;0.75;;;;;;;-4.90;83.54;99939.00;5047536;28;20088;-82
2022/01/23 07:15:21;;;;;;;0.90;0.90;;;;;;;-4.87;83.45;99950.13;5049942;28;20045;-81
2022/01/23 07:18:21;;;;;;;0.70;0.70;;;;;;;-4.91;83.47;99953.97;5041676;28;20500;-82
2022/01/23 07:21:08;;;;;;;0.63;0.63;;;;;;;-4.92;83.73;99960.19;5046205;28;20041;-82
2022/01/23 07:23:38;;;;;;;0.70;0.70;;;;;;;-4.91;83.41;99958.38;4697162;28;10000100;-82
2022/01/23 07:26:07;;;;;;;0.80;0.80;;;;;;;-4.86;83.43;99953.56;4688972;28;10001386;-82
2022/01/23 07:28:40;;;;;;;0.68;0.68;;;;;;;-4.82;83.59;99962.91;5045151;28;20062;-81
2022/01/23 07:31:10;;;;;;;0.70;0.70;;;;;;;-4.71;83.42;99964.69;5046895;28;20617;-81
2022/01/23 07:33:38;;;;;;;0.70;0.70;;;;;;;-4.67;83.26;99972.22;5048109;28;20048;-82
2022/01/23 07:36:06;;;;;;;0.80;0.80;;;;;;;-4.61;83.12;99971.75;5030166;28;20076;-81
2022/01/23 07:38:34;;;;;;;0.60;0.60;;;;;;;-4.59;82.86;99979.50;5045750;28;20119;-83
2022/01/23 07:41:23;;;;;;;0.90;0.90;;;;;;;-4.66;82.40;99973.91;5046694;28;20049;-83
2022/01/23 07:43:54;;;;;;;0.82;0.82;;;;;;;-4.68;82.36;99985.53;5047319;28;20492;-81
2022/01/23 07:46:51;;;;;;;;;;;;;;;-4.68;82.32;99988.16;5046665;28;20573;-81
2022/01/23 07:49:56;;;;;;;0.90;0.90;;;;;;;-4.71;81.92;99986.63;5038730;28;19925;-83
2022/01/23 07:52:43;;;;;;;0.90;0.90;;;;;;;-4.67;81.88;100003.00;5045747;28;20041;-82
2022/01/23 07:55:40;;;;;;;0.88;0.88;;;;;;;-4.69;81.72;99997.00;5045168;28;20053;-82
2022/01/23 07:58:26;;;;;;;0.60;0.60;;;;;;;-4.61;81.81;100002.50;5046725;28;20049;-82
2022/01/23 08:01:09;;;;;;;0.70;0.70;;;;;;;-4.60;81.51;100009.47;5047047;28;20049;-84
2022/01/23 08:03:56;;;;;;;0.80;0.80;;;;;;;-4.54;81.41;100013.38;5046115;28;20090;-81
2022/01/23 08:06:28;;;;;;;0.75;0.75;;;;;;;-4.48;81.60;100013.75;5045900;28;20084;-82
2022/01/23 08:09:15;;;;;;;0.90;0.90;;;;;;;-4.44;81.31;100020.44;5027745;28;20049;-83
2022/01/23 08:11:47;;;;;;;0.70;0.70;;;;;;;-4.42;81.30;100023.78;5026577;28;20050;-83
2022/01/23 08:14:14;;;;;;;0.75;0.75;;;;;;;-4.45;81.16;100026.66;5027740;28;20517;-83
2022/01/23 08:16:43;;;;;;;0.80;0.80;;;;;;;-4.33;81.49;100031.91;5027267;28;20053;-83
2022/01/23 08:19:10;;;;;;;0.75;0.75;;;;;;;-4.28;81.33;100050.81;5028249;28;20068;-84
2022/01/23 08:21:40;;;;;;;0.60;0.60;;;;;;;-4.19;80.98;100050.09;5047628;28;20502;-82
2022/01/23 08:24:07;;;;;;;0.90;0.90;;;;;;;-4.17;80.61;100050.81;5048597;28;20079;-84
2022/01/23 08:26:35;;;;;;;1.00;1.00;;;;;;;-4.16;80.44;100055.94;5044755;28;20514;-83
2022/01/23 08:29:05;;;;;;;0.82;0.82;;;;;;;-4.07;80.26;100061.44;5033742;28;20067;-84
2022/01/23 08:31:32;;;;;;;1.00;1.00;;;;;;;-3.98;80.23;100053.59;5037203;28;20055;-84
2022/01/23 08:33:59;;;;;;;0.90;0.90;;;;;;;-3.76;79.94;100070.31;5038167;28;20045;-81
2022/01/23 08:36:26;;;;;;;0.90;0.90;;;;;;;-3.62;78.91;100072.66;5035109;28;20100;-83
2022/01/23 08:38:58;;;;;;;1.00;1.00;;;;;;;-3.50;78.50;100073.41;5041106;28;20222;-82
2022/01/23 08:44:11;;;;;;;0.90;0.90;;;;;;;-3.09;77.78;100079.66;5047775;28;20099;-85
2022/01/23 08:46:38;;;;;;;1.00;1.00;;;;;;;-2.99;77.32;100084.97;5046968;28;20055;-86
2022/01/23 08:49:05;;;;;;;0.93;0.93;;;;;;;-3.12;77.17;100083.38;5047678;28;20045;-85
2022/01/23 08:51:33;;;;;;;0.70;0.70;;;;;;;-3.23;77.41;100090.56;5034337;28;20088;-85
2022/01/23 08:54:02;;;;;;;1.00;1.00;;;;;;;-3.38;77.71;100098.78;5050692;28;20052;-82
2022/01/23 08:56:30;;;;;;;0.90;0.90;;;;;;;-3.44;77.64;100101.09;5045597;28;20044;-86
2022/01/23 08:58:57;;;;;;;0.80;0.80;;;;;;;-3.57;77.51;100096.84;5049783;28;20591;-87
2022/01/23 09:01:25;;;;;;;0.90;0.90;;;;;;;-3.65;77.37;100106.34;5049163;28;20049;-85
2022/01/23 09:03:52;;;;;;;0.90;0.90;;;;;;;-3.75;77.78;100119.47;5049684;28;20060;-85
2022/01/23 09:06:20;;;;;;;0.88;0.88;;;;;;;-3.77;78.16;100116.13;5051340;28;20496;-85
2022/01/23 09:08:47;;;;;;;0.90;0.90;;;;;;;-3.66;78.10;100129.28;5053182;28;20044;-86
2022/01/23 09:14:06;;;;;;;0.80;0.80;;;;;;;-3.58;77.82;100141.84;5049139;28;20052;-87
2022/01/23 09:16:44;;;;;;;0.90;0.90;;;;;;;-3.60;77.93;100141.13;5048216;28;20040;-86
2022/01/23 09:19:11;;;;;;;1.08;1.08;;;;;;;-3.54;77.70;100141.47;5049618;28;20095;-86
2022/01/23 09:21:39;;;;;;;0.88;0.88;;;;;;;-3.54;77.40;100140.63;5051484;28;20411;-85
2022/01/23 09:24:06;;;;;;;0.95;0.95;;;;;;;-3.62;77.36;100129.84;5050406;28;20048;-85
2022/01/23 09:26:36;;;;;;;0.98;0.98;;;;;;;-3.58;77.70;100128.63;5046729;28;20452;-86
2022/01/23 09:29:25;;;;;;;0.75;0.75;;;;;;;-3.51;77.58;100132.44;5035431;28;20049;-86
2022/01/23 09:31:53;;;;;;;0.90;0.90;;;;;;;-3.36;77.48;100133.00;5050911;28;20059;-86
2022/01/23 09:34:24;;;;;;;1.10;1.10;;;;;;;-3.24;76.99;100145.19;5048704;28;20052;-86
2022/01/23 09:36:59;;;;;;;1.00;1.00;;;;;;;-3.21;76.50;100147.56;5032172;28;20460;-89
2022/01/23 09:39:27;;;;;;;1.02;1.02;;;;;;;-3.24;76.50;100146.94;5051426;28;20085;-83
2022/01/23 09:42:06;;;;;;;1.00;1.00;;;;;;;-3.31;76.91;100142.19;5050722;28;20072;-87
2022/01/23 09:44:47;;;;;;;1.08;1.08;;;;;;;-3.24;76.85;100147.81;5048282;28;20569;-84
2022/01/23 09:47:16;;;;;;;0.90;0.90;;;;;;;-3.22;76.86;100158.22;5049228;28;20461;-85
2022/01/23 09:49:43;;;;;;;0.98;0.98;;;;;;;-3.19;76.92;100161.47;5050204;28;20792;-84
2022/01/23 09:52:12;;;;;;;1.02;1.02;;;;;;;-3.11;76.45;100164.31;5031837;28;20053;-87
2022/01/23 09:54:44;;;;;;;1.00;1.00;;;;;;;-3.10;76.59;100165.13;5031820;28;20496;-85
2022/01/23 09:57:15;;;;;;;1.08;1.08;;;;;;;-3.16;76.47;100161.22;5049351;28;20053;-86
2022/01/23 09:59:43;;;;;;;0.90;0.90;;;;;;;-3.24;75.94;100165.44;5048740;28;20510;-87
2022/01/23 10:02:11;;;;;;;1.00;1.00;;;;;;;-3.13;76.06;100187.34;5014861;28;20550;-86
2022/01/23 10:04:38;;;;;;;1.08;1.08;;;;;;;-3.15;76.28;100194.56;5049227;28;20052;-85
2022/01/23 10:07:07;;;;;;;0.90;0.90;;;;;;;-3.02;76.41;100194.38;5048959;28;20053;-85
2022/01/23 10:09:35;;;;;;;1.00;1.00;;;;;;;-2.98;76.37;100187.06;5050007;28;20091;-85
2022/01/23 10:12:09;;;;;;;1.00;1.00;;;;;;;-2.99;76.28;100198.56;5049391;28;20087;-87
2022/01/23 10:14:37;;;;;;;0.90;0.90;;;;;;;-3.01;75.75;100197.84;5049845;28;20048;-84
2022/01/23 10:17:09;;;;;;;1.10;1.10;;;;;;;-3.00;76.26;100191.63;5049509;28;20053;-85
2022/01/23 10:19:38;;;;;;;0.85;0.85;;;;;;;-2.90;76.06;100187.25;5034213;28;20505;-87
2022/01/23 10:22:06;;;;;;;1.00;1.00;;;;;;;-2.83;75.91;100194.53;5049305;28;20128;-87
2022/01/23 10:24:33;;;;;;;1.00;1.00;;;;;;;-2.90;75.76;100195.16;5049382;28;20159;-87
2022/01/23 10:27:01;;;;;;;1.00;1.00;;;;;;;-2.95;75.74;100195.53;5049225;28;20537;-87
2022/01/23 10:29:34;;;;;;;0.90;0.90;;;;;;;-3.05;75.42;100195.47;5049963;28;20103;-87
2022/01/23 10:32:23;;;;;;;0.90;0.90;;;;;;;-3.06;75.39;100201.72;5036143;28;20057;-88
2022/01/23 10:34:55;;;;;;;1.00;1.00;;;;;;;-3.13;75.95;100207.66;5058676;28;20138;-86
2022/01/23 10:37:37;;;;;;;1.00;1.00;;;;;;;-3.04;75.89;100198.94;5054159;28;20080;-90
2022/01/23 10:40:25;;;;;;;0.90;0.90;;;;;;;-2.99;75.79;100198.56;5051507;28;20140;-85
2022/01/23 10:48:36;;;;;;;0.95;0.95;;;;;;;-3.00;75.37;100207.47;5050220;28;20439;-87
2022/01/23 10:51:22;;;;;;;1.02;1.02;;;;;;;-3.02;75.26;100219.97;5047881;28;20053;-86
2022/01/23 10:54:16;;;;;;;0.90;0.90;;;;;;;-3.09;75.51;100230.19;5049960;28;20330;-88
2022/01/23 10:56:55;;;;;;;0.90;0.90;;;;;;;-3.10;75.62;100237.28;5041741;28;20052;-86
2022/01/23 10:59:22;;;;;;;0.85;0.85;;;;;;;-3.11;75.35;100240.06;5057573;28;20057;-86
2022/01/23 11:02:08;;;;;;;0.90;0.90;;;;;;;-3.07;75.62;100229.09;5052795;28;20102;-89
2022/01/23 11:05:06;;;;;;;0.90;0.90;;;;;;;-3.09;75.51;100227.53;5054824;28;20052;-86
2022/01/23 11:07:34;;;;;;;1.05;1.05;;;;;;;-3.35;75.75;100211.22;5059990;28;20075;-89
2022/01/23 11:10:21;;;;;;;0.90;0.90;;;;;;;-3.18;75.90;100231.78;5061401;28;20071;-87
2022/01/23 11:18:19;;;;;;;0.85;0.85;;;;;;;-3.06;75.31;100245.81;5036499;28;20056;-89
2022/01/23 11:20:48;;;;;;;1.00;1.00;;;;;;;-3.11;75.50;100259.38;5013871;28;20059;-86
2022/01/23 11:23:30;;;;;;;0.90;0.90;;;;;;;-3.06;75.79;100261.66;5016731;28;20054;-86
2022/01/23 11:25:57;;;;;;;0.80;0.80;;;;;;;-3.02;75.60;100265.69;5052430;28;20045;-87
2022/01/23 11:28:28;;;;;;;0.98;0.98;;;;;;;-2.99;75.44;100269.88;5052950;28;20338;-87
2022/01/23 11:30:56;;;;;;;0.82;0.82;;;;;;;-3.18;75.49;100279.31;5051925;28;20052;-88
2022/01/23 11:33:23;;;;;;;0.90;0.90;;;;;;;-3.16;75.56;100287.97;5035383;28;20056;-87
2022/01/23 11:35:51;;;;;;;0.73;0.73;;;;;;;-3.13;75.58;100276.31;5052486;28;20344;-88
2022/01/23 11:38:21;;;;;;;0.88;0.88;;;;;;;-3.15;75.75;100286.16;5052294;28;20412;-87
2022/01/23 11:54:50;;;;;;;0.60;0.60;;;;;;;-3.28;75.80;100305.63;5051790;28;20103;-87
2022/01/23 11:57:39;;;;;;;0.80;0.80;;;;;;;-3.35;75.71;100293.03;5050973;28;20052;-89
2022/01/23 12:00:44;;;;;;;0.80;0.80;;;;;;;-3.40;75.84;100308.41;5039723;28;20107;-86
2022/01/23 12:03:17;;;;;;;0.77;0.77;;;;;;;-3.46;75.67;100286.00;5034493;28;20052;-85
2022/01/23 12:05:46;;;;;;;0.90;0.90;;;;;;;-3.43;75.55;100295.47;5051623;28;20057;-86
2022/01/23 12:08:35;;;;;;;0.85;0.85;;;;;;;-3.44;75.55;100306.97;5051315;28;20057;-86
2022/01/23 12:17:10;;;;;;;0.90;0.90;;;;;;;-3.51;75.52;100318.03;5039658;28;20084;-88
2022/01/23 12:19:47;;;;;;;0.85;0.85;;;;;;;-3.49;75.91;100323.19;5034872;28;20046;-92
2022/01/23 12:22:47;;;;;;;0.90;0.90;;;;;;;-3.46;75.84;100333.50;5036209;28;20500;-87
2022/01/23 12:25:20;;;;;;;0.90;0.90;;;;;;;-3.52;75.59;100334.84;5045967;28;20060;-87
2022/01/23 12:27:47;;;;;;;0.80;0.80;;;;;;;-3.67;76.08;100335.19;5044593;28;20053;-89
2022/01/23 12:30:14;;;;;;;0.90;0.90;;;;;;;-3.70;76.54;100349.47;5045529;28;20091;-87
2022/01/23 12:32:49;;;;;;;0.80;0.80;;;;;;;-3.67;76.49;100353.66;5038009;28;20049;-87
2022/01/23 12:35:17;;;;;;;0.77;0.77;;;;;;;-3.74;76.63;100358.59;5058168;28;20060;-87
2022/01/23 12:37:58;;;;;;;0.85;0.85;;;;;;;-3.75;76.91;100360.41;5051890;28;20045;-87
2022/01/23 12:40:29;;;;;;;0.80;0.80;;;;;;;-3.82;76.85;100353.06;5051420;28;20419;-87
2022/01/23 12:43:29;;;;;;;0.65;0.65;;;;;;;-3.78;76.99;100362.41;5029550;28;20080;-86
2022/01/23 12:46:01;;;;;;;0.73;0.73;;;;;;;-3.86;76.81;100357.75;5037507;28;20134;-87
2022/01/23 12:48:39;;;;;;;0.77;0.77;;;;;;;-3.85;77.02;100364.69;5043630;28;20080;-86
2022/01/23 12:51:32;;;;;;;1.00;1.00;;;;;;;-3.89;77.19;100362.44;5041775;28;20053;-87
2022/01/23 12:54:00;;;;;;;0.80;0.80;;;;;;;-3.92;77.42;100364.34;5043848;28;20175;-87
2022/01/23 12:56:30;;;;;;;0.80;0.80;;;;;;;-3.98;77.37;100362.16;5054133;28;20049;-85
2022/01/23 12:59:06;;;;;;;0.95;0.95;;;;;;;-3.99;77.41;100365.75;5043856;28;20049;-87
2022/01/23 13:01:34;;;;;;;0.80;0.80;;;;;;;-4.11;77.77;100357.94;5038542;28;20176;-87
2022/01/23 13:04:05;;;;;;;0.80;0.80;;;;;;;-4.12;77.61;100359.75;5038720;28;20076;-86
2022/01/23 13:06:42;;;;;;;0.77;0.77;;;;;;;-4.11;77.64;100369.34;5047681;28;20126;-86
2022/01/23 13:09:18;;;;;;;0.98;0.98;;;;;;;-4.16;77.89;100361.75;5046047;28;20048;-86
2022/01/23 13:12:05;;;;;;;0.88;0.88;;;;;;;-4.16;78.09;100367.03;5036371;28;20049;-85
2022/01/23 13:14:56;;;;;;;1.00;1.00;;;;;;;-4.21;78.37;100374.47;5034973;28;20508;-86
2022/01/23 13:32:00;;;;;;;0.70;0.70;;;;;;;-4.37;79.23;100410.84;5049771;28;20042;-88
2022/01/23 13:34:45;;;;;;;0.90;0.90;;;;;;;-4.41;79.46;100406.75;5053472;28;20419;-87
2022/01/23 13:37:20;;;;;;;0.70;0.70;;;;;;;-4.41;79.54;100414.66;5056181;28;20061;-89
2022/01/23 13:40:00;;;;;;;0.98;0.98;;;;;;;-4.42;79.64;100424.38;5037737;28;20423;-88
2022/01/23 13:51:38;;;;;;;0.60;0.60;;;;;;;-4.36;80.07;100460.78;5067993;28;20060;-88
2022/01/23 13:57:38;;;;;;;0.90;0.90;;;;;;;-4.39;79.53;100465.47;4997409;28;20065;-87
2022/01/23 14:00:14;;;;;;;0.88;0.88;;;;;;;-4.39;79.71;100470.75;5001405;28;20081;-86
2022/01/23 14:02:45;;;;;;;0.80;0.80;;;;;;;-4.40;79.45;100471.72;4987735;28;20145;-85
2022/01/23 14:05:20;;;;;;;0.75;0.75;;;;;;;-4.52;79.68;100462.91;4994344;28;20061;-86
2022/01/23 14:07:54;;;;;;;0.75;0.75;;;;;;;-4.59;79.70;100470.38;4976196;28;20068;-84
2022/01/23 14:10:50;;;;;;;0.90;0.90;;;;;;;-4.73;80.23;100472.38;4994317;28;20108;-85
2022/01/23 14:15:10;;;;;;;0.82;0.82;;;;;;;-4.96;80.50;100481.88;4993666;28;20104;-84
2022/01/23 14:19:23;;;;;;;0.75;0.75;;;;;;;-5.25;81.06;100471.63;4984066;28;20050;-86
2022/01/23 14:21:56;;;;;;;0.88;0.88;;;;;;;-5.29;81.28;100484.16;4933861;29;20173;-88
2022/01/23 14:24:27;;;;;;;0.63;0.63;;;;;;;-5.51;81.70;100471.66;4937336;29;20055;-88
2022/01/23 14:26:59;;;;;;;1.00;1.00;;;;;;;-5.64;82.23;100476.06;4936226;29;20400;-86
2022/01/23 14:29:30;;;;;;;0.70;0.70;;;;;;;-5.73;82.79;100498.56;4955720;29;20138;-86
2022/01/23 14:32:09;;;;;;;0.70;0.70;;;;;;;-5.83;83.18;100497.50;4941555;28;20244;-86
2022/01/23 14:34:36;;;;;;;0.60;0.60;;;;;;;-5.89;83.72;100511.06;4959402;28;20057;-84
2022/01/23 14:37:06;;;;;;;0.88;0.88;;;;;;;-5.90;83.90;100514.63;4969654;28;20061;-86
2022/01/23 14:39:35;;;;;;;0.80;0.80;;;;;;;-5.90;83.97;100528.66;4972016;28;20061;-87
2022/01/23 14:42:14;;;;;;;0.80;0.80;;;;;;;-5.75;84.09;100541.69;4940144;28;20046;-86
2022/01/23 14:44:42;;;;;;;0.60;0.60;;;;;;;-5.65;83.95;100542.75;4970358;28;20538;-85
2022/01/23 14:47:11;;;;;;;0.70;0.70;;;;;;;-5.48;83.28;100549.53;4972031;28;20494;-87
2022/01/23 14:49:44;;;;;;;0.70;0.70;;;;;;;-5.36;83.11;100551.31;4951284;28;20058;-86
2022/01/23 14:52:14;;;;;;;0.70;0.70;;;;;;;-5.24;82.64;100568.91;4958544;28;20057;-85
2022/01/23 14:54:43;;;;;;;0.60;0.60;;;;;;;-5.31;82.13;100562.38;4941817;28;20047;-84
2022/01/23 14:57:15;;;;;;;0.68;0.68;;;;;;;-5.30;81.95;100569.31;4975722;28;20046;-89
2022/01/23 14:59:47;;;;;;;0.90;0.90;;;;;;;-5.25;81.83;100576.91;5043158;28;20081;-90
2022/01/23 15:02:18;;;;;;;0.60;0.60;;;;;;;-5.21;81.67;100591.56;4697060;28;10000474;-89
2022/01/23 15:04:46;;;;;;;0.60;0.60;;;;;;;-5.14;81.68;100599.84;5048985;28;20056;-89
2022/01/23 15:07:17;;;;;;;0.70;0.70;;;;;;;-5.07;81.71;100606.41;5019921;28;20478;-88
2022/01/23 15:09:49;;;;;;;0.88;0.88;;;;;;;-5.04;81.42;100606.19;5042352;28;20100;-91
2022/01/23 15:12:17;;;;;;;0.65;0.65;;;;;;;-5.04;81.65;100614.06;5046714;28;20118;-88
2022/01/23 15:14:45;;;;;;;0.77;0.77;;;;;;;-5.04;81.62;100603.53;5051789;28;20496;-86
2022/01/23 15:17:15;;;;;;;0.80;0.80;;;;;;;-5.08;81.66;100610.00;5040755;28;20138;-91
2022/01/23 15:19:45;;;;;;;0.70;0.70;;;;;;;-5.09;81.77;100618.81;5114265;23;20067;-87
2022/01/23 15:22:15;;;;;;;0.82;0.82;;;;;;;-5.19;81.58;100612.50;5047257;28;20049;-88
2022/01/23 15:24:45;;;;;;;0.63;0.63;;;;;;;-5.23;81.71;100622.41;5026836;28;20045;-86
2022/01/23 15:27:13;;;;;;;0.63;0.63;;;;;;;-5.25;82.02;100633.03;5039535;28;20462;-85
2022/01/23 15:29:40;;;;;;;0.80;0.80;;;;;;;-5.26;82.15;100633.13;5046740;28;20413;-83
2022/01/23 15:32:08;;;;;;;0.65;0.65;;;;;;;-5.25;82.19;100647.97;5043873;28;20369;-87
2022/01/23 15:34:36;;;;;;;0.80;0.80;;;;;;;-5.16;82.19;100651.78;5042438;28;20258;-85
2022/01/23 15:37:07;;;;;;;0.82;0.82;;;;;;;-5.13;82.09;100662.13;5045820;28;20070;-90
2022/01/23 15:39:34;;;;;;;0.90;0.90;;;;;;;-5.20;82.13;100643.25;5054978;28;20076;-86